Observations for Trim Patrick St
| Time | AQI | Temp °C | Hum % | Pres Pa | CO μg/m³ | H₂S μg/m³ | NO μg/m³ | NO₂ μg/m³ | O₃ μg/m³ | SO₂ μg/m³ | PM1 μg/m³ | PM2.5 μg/m³ | PM10 μg/m³ |
|---|---|---|---|---|---|---|---|---|---|---|---|---|---|
| Wednesday 5 August 2026 | |||||||||||||
| 04:01 | 2 | 15.5 | 75 | 38,460 | 0.14 | 0.44 | 2.53 | 10.55 | 49.85 | 0 | 2.86 | 6.95 | 7.64 |
| 04:00 | 2 | 15.5 | 75 | 38,460 | 0.13 | 0.46 | 2.48 | 11.61 | 58.79 | 0 | 2.86 | 6.94 | 7.63 |
| 03:59 | 2 | 15.5 | 76 | 38,460 | 0.12 | 0.83 | 2.55 | 12.33 | 63.7 | 0 | 2.86 | 6.93 | 7.63 |
| 03:58 | 2 | 15.5 | 75 | 38,460 | 0.11 | 0.59 | 2.58 | 10.96 | 57.26 | 0 | 2 | 5.52 | 6.07 |
| 03:57 | 2 | 15.5 | 75 | 38,460 | 0.13 | 0.46 | 2.72 | 11.5 | 60.16 | 0 | 2 | 5.55 | 6.11 |
| 03:56 | 2 | 15.5 | 75 | 38,460 | 0.13 | 0.54 | 2.72 | 12.71 | 64.04 | 0 | 2.86 | 6.24 | 6.87 |
| 03:55 | 2 | 15.5 | 75 | 38,460 | 0.14 | 0 | 2.77 | 10.51 | 56.18 | 0 | 2 | 5.55 | 6.1 |
| 03:54 | 2 | 15.5 | 75 | 38,460 | 0.13 | 0 | 2.76 | 11.48 | 62.37 | 0 | 2 | 4.85 | 5.33 |
| 03:53 | 2 | 15.5 | 75 | 38,460 | 0.12 | 0 | 2.75 | 9.76 | 57.32 | 0 | 2 | 4.85 | 5.33 |
| 03:52 | 2 | 15.5 | 75 | 38,460 | 0.12 | 0 | 2.7 | 8.88 | 48.75 | 0 | 2.86 | 6.97 | 7.66 |
| 03:51 | 2 | 15.5 | 75 | 38,460 | 0.12 | 0 | 2.7 | 10.83 | 59.21 | 0 | 2 | 4.85 | 5.33 |
| 03:50 | 2 | 15.5 | 75 | 38,460 | 0.12 | 0 | 2.58 | 11.18 | 55.76 | 0 | 2 | 4.85 | 5.33 |
| 03:49 | 2 | 15.5 | 75 | 38,460 | 0.14 | 0.41 | 2.61 | 11.46 | 63.2 | 0 | 2 | 4.86 | 5.34 |
| 03:48 | 2 | 15.5 | 75 | 38,460 | 0.13 | 0 | 2.66 | 10.29 | 55.46 | 0 | 2 | 4.86 | 5.34 |
| 03:47 | 2 | 15.5 | 75 | 38,460 | 0.13 | 0 | 2.65 | 9 | 52.69 | 0 | 2.86 | 5.57 | 6.13 |
| 03:46 | 2 | 15.5 | 75 | 38,460 | 0.13 | 0 | 2.61 | 9.22 | 48.57 | 0 | 2.86 | 5.55 | 6.11 |
| 03:45 | 2 | 15.6 | 75 | 38,460 | 0.11 | 0 | 2.57 | 9.75 | 52.12 | 0 | 2 | 6.24 | 6.86 |
| 03:44 | 2 | 15.6 | 75 | 38,460 | 0.11 | 0 | 2.56 | 11.44 | 59.78 | 0 | 2 | 4.84 | 5.32 |
| 03:43 | 2 | 15.6 | 75 | 38,460 | 0.12 | 0 | 2.54 | 11.42 | 61.31 | 0 | 2 | 4.84 | 5.33 |
| 03:42 | 2 | 15.5 | 75 | 38,460 | 0.13 | 0 | 2.6 | 11.73 | 60.02 | 0 | 2 | 5.55 | 6.1 |